sensor_id;sensor_type;location;lat;lon;timestamp;pressure;altitude;pressure_sealevel;temperature;humidity
10460;BME280;54412;51.206;6.888;2022-07-22T00:02:13;101425.88;;;20.47;70.22
10460;BME280;54412;51.206;6.888;2022-07-22T00:04:39;101432.34;;;20.66;70.17
10460;BME280;54412;51.206;6.888;2022-07-22T00:07:05;101426.59;;;20.38;70.49
10460;BME280;54412;51.206;6.888;2022-07-22T00:09:30;101432.78;;;20.38;70.39
10460;BME280;54412;51.206;6.888;2022-07-22T00:11:56;101436.72;;;20.56;70.20
10460;BME280;54412;51.206;6.888;2022-07-22T00:14:22;101435.97;;;20.54;69.92
10460;BME280;54412;51.206;6.888;2022-07-22T00:16:48;101434.28;;;20.53;70.26
10460;BME280;54412;51.206;6.888;2022-07-22T00:19:14;101429.91;;;20.52;70.13
10460;BME280;54412;51.206;6.888;2022-07-22T00:21:39;101427.94;;;20.43;70.31
10460;BME280;54412;51.206;6.888;2022-07-22T00:24:05;101432.91;;;20.37;71.00
10460;BME280;54412;51.206;6.888;2022-07-22T00:26:31;101429.50;;;20.35;70.75
10460;BME280;54412;51.206;6.888;2022-07-22T00:28:57;101433.69;;;20.15;72.05
10460;BME280;54412;51.206;6.888;2022-07-22T00:31:23;101432.28;;;20.22;71.58
10460;BME280;54412;51.206;6.888;2022-07-22T00:33:49;101429.84;;;20.19;71.35
10460;BME280;54412;51.206;6.888;2022-07-22T00:36:14;101439.28;;;20.12;72.06
10460;BME280;54412;51.206;6.888;2022-07-22T00:38:40;101430.22;;;20.26;71.78
10460;BME280;54412;51.206;6.888;2022-07-22T00:41:06;101433.75;;;20.26;71.63
10460;BME280;54412;51.206;6.888;2022-07-22T00:44:02;101435.41;;;20.16;71.88
10460;BME280;54412;51.206;6.888;2022-07-22T00:46:29;101440.94;;;20.26;71.50
10460;BME280;54412;51.206;6.888;2022-07-22T00:48:57;101428.38;;;20.26;71.35
10460;BME280;54412;51.206;6.888;2022-07-22T00:51:26;101432.53;;;20.19;71.13
10460;BME280;54412;51.206;6.888;2022-07-22T00:53:53;101432.06;;;20.25;71.20
10460;BME280;54412;51.206;6.888;2022-07-22T00:56:21;101427.84;;;20.10;71.45
10460;BME280;54412;51.206;6.888;2022-07-22T00:58:49;101439.09;;;20.26;71.37
10460;BME280;54412;51.206;6.888;2022-07-22T01:01:16;101433.06;;;20.12;71.81
10460;BME280;54412;51.206;6.888;2022-07-22T01:03:42;101432.47;;;20.08;71.71
10460;BME280;54412;51.206;6.888;2022-07-22T01:06:09;101428.31;;;20.04;72.04
10460;BME280;54412;51.206;6.888;2022-07-22T01:08:37;101428.03;;;20.20;71.36
10460;BME280;54412;51.206;6.888;2022-07-22T01:11:12;101425.66;;;20.15;71.79
10460;BME280;54412;51.206;6.888;2022-07-22T01:13:39;101428.25;;;20.17;71.42
10460;BME280;54412;51.206;6.888;2022-07-22T01:16:07;101427.16;;;20.19;70.99
10460;BME280;54412;51.206;6.888;2022-07-22T01:18:34;101422.53;;;20.21;71.54
10460;BME280;54412;51.206;6.888;2022-07-22T01:21:00;101419.41;;;20.27;70.63
10460;BME280;54412;51.206;6.888;2022-07-22T01:23:26;101433.38;;;20.20;71.15
10460;BME280;54412;51.206;6.888;2022-07-22T01:25:51;101425.91;;;20.12;71.15
10460;BME280;54412;51.206;6.888;2022-07-22T01:28:17;101427.72;;;20.12;71.11
10460;BME280;54412;51.206;6.888;2022-07-22T01:30:43;101420.50;;;20.01;71.59
10460;BME280;54412;51.206;6.888;2022-07-22T01:33:09;101423.56;;;19.97;71.96
10460;BME280;54412;51.206;6.888;2022-07-22T01:35:34;101419.56;;;20.02;71.69
10460;BME280;54412;51.206;6.888;2022-07-22T01:38:00;101417.72;;;20.03;71.77
10460;BME280;54412;51.206;6.888;2022-07-22T01:40:26;101417.53;;;20.17;71.11
10460;BME280;54412;51.206;6.888;2022-07-22T01:42:52;101418.94;;;20.10;71.43
10460;BME280;54412;51.206;6.888;2022-07-22T01:45:17;101420.88;;;19.97;71.61
10460;BME280;54412;51.206;6.888;2022-07-22T01:47:43;101419.41;;;19.93;72.10
10460;BME280;54412;51.206;6.888;2022-07-22T01:50:11;101414.25;;;19.90;71.83
10460;BME280;54412;51.206;6.888;2022-07-22T01:52:38;101413.78;;;19.96;72.14
10460;BME280;54412;51.206;6.888;2022-07-22T01:55:07;101418.69;;;19.67;72.83
10460;BME280;54412;51.206;6.888;2022-07-22T01:57:33;101411.44;;;19.80;72.68
10460;BME280;54412;51.206;6.888;2022-07-22T01:59:59;101412.22;;;19.93;72.11
10460;BME280;54412;51.206;6.888;2022-07-22T02:02:24;101405.03;;;19.94;71.59
10460;BME280;54412;51.206;6.888;2022-07-22T02:04:50;101406.00;;;19.93;71.73
10460;BME280;54412;51.206;6.888;2022-07-22T02:07:16;101407.84;;;20.03;71.53
10460;BME280;54412;51.206;6.888;2022-07-22T02:09:41;101407.78;;;19.81;72.09
10460;BME280;54412;51.206;6.888;2022-07-22T02:12:07;101408.19;;;19.88;72.05
10460;BME280;54412;51.206;6.888;2022-07-22T02:14:34;101413.91;;;19.94;72.03
10460;BME280;54412;51.206;6.888;2022-07-22T02:16:59;101405.41;;;19.89;72.44
10460;BME280;54412;51.206;6.888;2022-07-22T02:19:25;101409.94;;;20.00;72.01
10460;BME280;54412;51.206;6.888;2022-07-22T02:21:51;101406.25;;;20.01;71.83
10460;BME280;54412;51.206;6.888;2022-07-22T02:24:16;101405.44;;;20.11;70.96
10460;BME280;54412;51.206;6.888;2022-07-22T02:26:42;101412.13;;;20.06;71.92
10460;BME280;54412;51.206;6.888;2022-07-22T02:29:08;101402.72;;;19.89;72.32
10460;BME280;54412;51.206;6.888;2022-07-22T02:31:33;101401.94;;;19.76;72.72
10460;BME280;54412;51.206;6.888;2022-07-22T02:33:59;101401.47;;;19.82;73.03
10460;BME280;54412;51.206;6.888;2022-07-22T02:36:25;101393.97;;;19.98;72.43
10460;BME280;54412;51.206;6.888;2022-07-22T02:38:51;101398.63;;;20.07;71.69
10460;BME280;54412;51.206;6.888;2022-07-22T02:41:17;101393.81;;;19.89;72.57
10460;BME280;54412;51.206;6.888;2022-07-22T02:43:42;101395.38;;;19.80;72.37
10460;BME280;54412;51.206;6.888;2022-07-22T02:46:08;101395.75;;;19.87;72.42
10460;BME280;54412;51.206;6.888;2022-07-22T02:48:34;101399.78;;;19.92;72.16
10460;BME280;54412;51.206;6.888;2022-07-22T02:50:59;101396.78;;;19.97;72.12
10460;BME280;54412;51.206;6.888;2022-07-22T02:53:25;101399.47;;;19.97;71.70
10460;BME280;54412;51.206;6.888;2022-07-22T02:55:51;101403.34;;;19.93;71.72
10460;BME280;54412;51.206;6.888;2022-07-22T02:58:17;101402.44;;;19.81;72.47
10460;BME280;54412;51.206;6.888;2022-07-22T03:00:42;101408.31;;;19.97;72.09
10460;BME280;54412;51.206;6.888;2022-07-22T03:03:08;101400.56;;;20.05;71.74
10460;BME280;54412;51.206;6.888;2022-07-22T03:05:34;101401.41;;;19.95;72.71
10460;BME280;54412;51.206;6.888;2022-07-22T03:07:59;101410.03;;;19.98;72.19
10460;BME280;54412;51.206;6.888;2022-07-22T03:10:25;101412.25;;;19.69;72.89
10460;BME280;54412;51.206;6.888;2022-07-22T03:12:51;101407.09;;;19.90;72.29
10460;BME280;54412;51.206;6.888;2022-07-22T03:15:16;101416.63;;;20.05;71.84
10460;BME280;54412;51.206;6.888;2022-07-22T03:17:42;101420.00;;;19.96;72.26
10460;BME280;54412;51.206;6.888;2022-07-22T03:20:10;101412.19;;;19.82;72.46
10460;BME280;54412;51.206;6.888;2022-07-22T03:22:36;101408.94;;;20.01;72.08
10460;BME280;54412;51.206;6.888;2022-07-22T03:25:03;101407.97;;;20.02;71.68
10460;BME280;54412;51.206;6.888;2022-07-22T03:27:29;101413.56;;;19.99;71.74
10460;BME280;54412;51.206;6.888;2022-07-22T03:29:55;101405.28;;;19.91;72.02
10460;BME280;54412;51.206;6.888;2022-07-22T03:32:21;101407.81;;;19.92;71.85
10460;BME280;54412;51.206;6.888;2022-07-22T03:34:46;101408.78;;;19.80;72.45
10460;BME280;54412;51.206;6.888;2022-07-22T03:37:12;101398.81;;;19.82;72.73
10460;BME280;54412;51.206;6.888;2022-07-22T03:39:38;101395.75;;;19.87;72.43
10460;BME280;54412;51.206;6.888;2022-07-22T03:42:04;101403.88;;;19.74;72.68
10460;BME280;54412;51.206;6.888;2022-07-22T03:44:29;101403.75;;;19.75;72.67
10460;BME280;54412;51.206;6.888;2022-07-22T03:46:55;101403.63;;;19.77;72.30
10460;BME280;54412;51.206;6.888;2022-07-22T03:49:21;101400.25;;;19.75;72.60
10460;BME280;54412;51.206;6.888;2022-07-22T03:51:47;101405.06;;;19.70;72.89
10460;BME280;54412;51.206;6.888;2022-07-22T03:54:13;101407.66;;;19.83;72.51
10460;BME280;54412;51.206;6.888;2022-07-22T03:56:39;101416.22;;;19.88;72.28
10460;BME280;54412;51.206;6.888;2022-07-22T03:59:04;101408.69;;;19.93;71.51
10460;BME280;54412;51.206;6.888;2022-07-22T04:01:30;101411.22;;;19.59;72.46
10460;BME280;54412;51.206;6.888;2022-07-22T04:03:56;101411.03;;;19.73;71.92
10460;BME280;54412;51.206;6.888;2022-07-22T04:06:21;101410.91;;;19.64;72.52
10460;BME280;54412;51.206;6.888;2022-07-22T04:08:47;101408.22;;;19.64;72.08
10460;BME280;54412;51.206;6.888;2022-07-22T04:11:14;101402.78;;;19.76;72.10
10460;BME280;54412;51.206;6.888;2022-07-22T04:13:39;101400.81;;;19.67;71.87
10460;BME280;54412;51.206;6.888;2022-07-22T04:16:05;101407.31;;;19.52;72.56
10460;BME280;54412;51.206;6.888;2022-07-22T04:18:32;101403.81;;;19.63;72.27
10460;BME280;54412;51.206;6.888;2022-07-22T04:20:58;101402.13;;;19.62;72.28
10460;BME280;54412;51.206;6.888;2022-07-22T04:23:24;101399.56;;;19.60;72.57
10460;BME280;54412;51.206;6.888;2022-07-22T04:25:50;101401.88;;;19.65;72.82
10460;BME280;54412;51.206;6.888;2022-07-22T04:28:16;101394.97;;;19.73;72.42
10460;BME280;54412;51.206;6.888;2022-07-22T04:30:41;101399.78;;;19.57;72.36
10460;BME280;54412;51.206;6.888;2022-07-22T04:33:07;101402.38;;;19.70;72.14
10460;BME280;54412;51.206;6.888;2022-07-22T04:35:33;101399.50;;;19.73;72.04
10460;BME280;54412;51.206;6.888;2022-07-22T04:37:59;101399.16;;;19.54;71.81
10460;BME280;54412;51.206;6.888;2022-07-22T04:40:24;101404.41;;;19.55;70.48
10460;BME280;54412;51.206;6.888;2022-07-22T04:42:50;101395.91;;;19.61;70.70
10460;BME280;54412;51.206;6.888;2022-07-22T04:45:16;101393.25;;;19.61;70.65
10460;BME280;54412;51.206;6.888;2022-07-22T04:47:42;101393.97;;;19.63;71.12
10460;BME280;54412;51.206;6.888;2022-07-22T04:50:08;101392.34;;;19.50;71.02
10460;BME280;54412;51.206;6.888;2022-07-22T04:52:34;101393.69;;;19.55;71.41
10460;BME280;54412;51.206;6.888;2022-07-22T04:55:00;101397.91;;;19.47;71.35
10460;BME280;54412;51.206;6.888;2022-07-22T04:57:26;101406.13;;;19.33;71.39
10460;BME280;54412;51.206;6.888;2022-07-22T04:59:53;101399.22;;;19.41;71.09
10460;BME280;54412;51.206;6.888;2022-07-22T05:02:19;101399.59;;;19.37;71.68
10460;BME280;54412;51.206;6.888;2022-07-22T05:04:45;101403.84;;;19.39;70.98
10460;BME280;54412;51.206;6.888;2022-07-22T05:07:11;101406.19;;;19.44;70.79
10460;BME280;54412;51.206;6.888;2022-07-22T05:09:37;101413.97;;;19.47;71.39
10460;BME280;54412;51.206;6.888;2022-07-22T05:12:04;101413.28;;;19.56;71.72
10460;BME280;54412;51.206;6.888;2022-07-22T05:14:30;101414.16;;;19.56;70.94
10460;BME280;54412;51.206;6.888;2022-07-22T05:16:55;101415.91;;;19.45;71.35
10460;BME280;54412;51.206;6.888;2022-07-22T05:19:21;101416.38;;;19.62;71.07
10460;BME280;54412;51.206;6.888;2022-07-22T05:21:47;101417.16;;;19.52;71.17
10460;BME280;54412;51.206;6.888;2022-07-22T05:24:13;101411.84;;;19.63;70.81
10460;BME280;54412;51.206;6.888;2022-07-22T05:26:38;101413.78;;;19.61;70.05
10460;BME280;54412;51.206;6.888;2022-07-22T05:29:04;101414.66;;;19.38;71.19
10460;BME280;54412;51.206;6.888;2022-07-22T05:31:30;101407.38;;;19.40;70.71
10460;BME280;54412;51.206;6.888;2022-07-22T05:33:56;101409.41;;;19.60;70.88
10460;BME280;54412;51.206;6.888;2022-07-22T05:36:22;101409.06;;;19.64;70.15
10460;BME280;54412;51.206;6.888;2022-07-22T05:38:48;101410.56;;;19.45;71.01
10460;BME280;54412;51.206;6.888;2022-07-22T05:41:13;101406.69;;;19.49;71.31
10460;BME280;54412;51.206;6.888;2022-07-22T05:43:39;101412.91;;;19.49;70.81
10460;BME280;54412;51.206;6.888;2022-07-22T05:46:05;101409.19;;;19.39;71.43
10460;BME280;54412;51.206;6.888;2022-07-22T05:48:33;101409.53;;;19.58;70.87
10460;BME280;54412;51.206;6.888;2022-07-22T05:50:59;101410.22;;;19.73;70.24
10460;BME280;54412;51.206;6.888;2022-07-22T05:53:24;101407.28;;;19.76;70.41
10460;BME280;54412;51.206;6.888;2022-07-22T05:55:50;101401.66;;;19.68;71.00
10460;BME280;54412;51.206;6.888;2022-07-22T05:58:16;101401.94;;;19.76;70.25
10460;BME280;54412;51.206;6.888;2022-07-22T06:00:42;101402.38;;;19.70;70.71
10460;BME280;54412;51.206;6.888;2022-07-22T06:03:07;101401.81;;;19.77;70.49
10460;BME280;54412;51.206;6.888;2022-07-22T06:05:33;101396.03;;;19.60;70.89
10460;BME280;54412;51.206;6.888;2022-07-22T06:08:01;101399.69;;;19.59;71.24
10460;BME280;54412;51.206;6.888;2022-07-22T06:10:27;101397.72;;;19.61;71.15
10460;BME280;54412;51.206;6.888;2022-07-22T06:12:53;101407.28;;;19.76;71.13
10460;BME280;54412;51.206;6.888;2022-07-22T06:15:18;101401.09;;;19.52;71.28
10460;BME280;54412;51.206;6.888;2022-07-22T06:17:44;101398.88;;;19.69;71.48
10460;BME280;54412;51.206;6.888;2022-07-22T06:20:10;101410.41;;;19.70;71.62
10460;BME280;54412;51.206;6.888;2022-07-22T06:22:36;101406.91;;;19.69;70.87
10460;BME280;54412;51.206;6.888;2022-07-22T06:25:01;101406.31;;;19.77;70.84
10460;BME280;54412;51.206;6.888;2022-07-22T06:27:27;101412.41;;;19.79;70.81
10460;BME280;54412;51.206;6.888;2022-07-22T06:29:53;101412.59;;;20.00;70.13
10460;BME280;54412;51.206;6.888;2022-07-22T06:32:19;101407.69;;;19.94;70.08
10460;BME280;54412;51.206;6.888;2022-07-22T06:34:44;101412.22;;;20.04;69.75
10460;BME280;54412;51.206;6.888;2022-07-22T06:37:10;101413.47;;;20.11;69.51
10460;BME280;54412;51.206;6.888;2022-07-22T06:39:36;101410.91;;;20.10;69.41
10460;BME280;54412;51.206;6.888;2022-07-22T06:42:02;101406.59;;;20.20;69.38
10460;BME280;54412;51.206;6.888;2022-07-22T06:44:27;101404.03;;;20.29;69.16
10460;BME280;54412;51.206;6.888;2022-07-22T06:46:53;101401.13;;;20.21;68.73
10460;BME280;54412;51.206;6.888;2022-07-22T06:49:18;101403.56;;;20.35;68.63
10460;BME280;54412;51.206;6.888;2022-07-22T06:51:44;101396.59;;;20.33;68.44
10460;BME280;54412;51.206;6.888;2022-07-22T06:54:10;101409.28;;;20.20;69.29
10460;BME280;54412;51.206;6.888;2022-07-22T06:56:36;101403.41;;;20.26;68.70
10460;BME280;54412;51.206;6.888;2022-07-22T06:59:02;101402.94;;;20.32;68.16
10460;BME280;54412;51.206;6.888;2022-07-22T07:01:27;101398.56;;;20.42;67.11
10460;BME280;54412;51.206;6.888;2022-07-22T07:03:53;101394.34;;;20.50;67.27
10460;BME280;54412;51.206;6.888;2022-07-22T07:06:19;101391.13;;;20.45;67.59
10460;BME280;54412;51.206;6.888;2022-07-22T07:08:45;101395.53;;;20.35;67.76
10460;BME280;54412;51.206;6.888;2022-07-22T07:11:11;101394.19;;;20.41;67.51
10460;BME280;54412;51.206;6.888;2022-07-22T07:13:36;101395.78;;;20.43;67.21
10460;BME280;54412;51.206;6.888;2022-07-22T07:16:02;101392.09;;;20.33;67.58
10460;BME280;54412;51.206;6.888;2022-07-22T07:18:28;101393.44;;;20.28;68.08
10460;BME280;54412;51.206;6.888;2022-07-22T07:20:54;101398.34;;;20.34;67.72
10460;BME280;54412;51.206;6.888;2022-07-22T07:23:21;101397.97;;;20.49;67.28
10460;BME280;54412;51.206;6.888;2022-07-22T07:25:46;101399.81;;;20.49;66.60
10460;BME280;54412;51.206;6.888;2022-07-22T07:28:12;101410.63;;;20.47;66.76
10460;BME280;54412;51.206;6.888;2022-07-22T07:30:38;101406.84;;;20.39;66.34
10460;BME280;54412;51.206;6.888;2022-07-22T07:33:03;101402.50;;;20.49;66.50
10460;BME280;54412;51.206;6.888;2022-07-22T07:35:29;101393.34;;;20.51;66.27
10460;BME280;54412;51.206;6.888;2022-07-22T07:37:55;101398.09;;;20.59;66.32
10460;BME280;54412;51.206;6.888;2022-07-22T07:40:21;101396.03;;;20.73;65.22
10460;BME280;54412;51.206;6.888;2022-07-22T07:42:47;101396.63;;;20.55;64.26
10460;BME280;54412;51.206;6.888;2022-07-22T07:45:12;101390.44;;;20.43;66.17
10460;BME280;54412;51.206;6.888;2022-07-22T07:47:38;101392.59;;;20.49;66.20
10460;BME280;54412;51.206;6.888;2022-07-22T07:50:06;101386.53;;;20.36;66.71
10460;BME280;54412;51.206;6.888;2022-07-22T07:52:41;101385.56;;;20.59;65.95
10460;BME280;54412;51.206;6.888;2022-07-22T07:55:09;101391.28;;;20.77;63.94
10460;BME280;54412;51.206;6.888;2022-07-22T07:57:36;101387.00;;;20.63;65.08
10460;BME280;54412;51.206;6.888;2022-07-22T08:00:07;101387.13;;;20.62;65.04
10460;BME280;54412;51.206;6.888;2022-07-22T08:02:34;101389.69;;;20.63;65.02
10460;BME280;54412;51.206;6.888;2022-07-22T08:05:00;101388.38;;;20.58;64.72
10460;BME280;54412;51.206;6.888;2022-07-22T08:07:27;101390.28;;;20.67;64.52
10460;BME280;54412;51.206;6.888;2022-07-22T08:09:53;101389.06;;;20.71;64.03
10460;BME280;54412;51.206;6.888;2022-07-22T08:12:19;101380.41;;;20.67;64.84
10460;BME280;54412;51.206;6.888;2022-07-22T08:14:45;101381.41;;;20.77;64.05
10460;BME280;54412;51.206;6.888;2022-07-22T08:17:10;101385.44;;;20.72;64.36
10460;BME280;54412;51.206;6.888;2022-07-22T08:19:36;101384.91;;;21.11;62.96
10460;BME280;54412;51.206;6.888;2022-07-22T08:22:02;101388.94;;;20.72;63.49
10460;BME280;54412;51.206;6.888;2022-07-22T08:24:28;101387.84;;;20.75;64.40
10460;BME280;54412;51.206;6.888;2022-07-22T08:26:54;101385.66;;;20.80;63.24
10460;BME280;54412;51.206;6.888;2022-07-22T08:29:19;101382.16;;;20.68;62.89
10460;BME280;54412;51.206;6.888;2022-07-22T08:31:45;101387.97;;;20.62;64.21
10460;BME280;54412;51.206;6.888;2022-07-22T08:34:11;101383.59;;;20.50;64.38
10460;BME280;54412;51.206;6.888;2022-07-22T08:36:37;101387.84;;;20.64;64.33
10460;BME280;54412;51.206;6.888;2022-07-22T08:39:03;101389.94;;;20.71;64.08
10460;BME280;54412;51.206;6.888;2022-07-22T08:41:36;101388.25;;;20.70;63.85
10460;BME280;54412;51.206;6.888;2022-07-22T08:44:06;101398.44;;;20.76;63.99
10460;BME280;54412;51.206;6.888;2022-07-22T08:46:32;101390.53;;;20.53;63.58
10460;BME280;54412;51.206;6.888;2022-07-22T08:48:58;101407.34;;;20.55;63.70
10460;BME280;54412;51.206;6.888;2022-07-22T08:51:27;101404.06;;;20.51;64.08
10460;BME280;54412;51.206;6.888;2022-07-22T08:53:54;101400.03;;;20.57;63.23
10460;BME280;54412;51.206;6.888;2022-07-22T08:56:20;101408.94;;;20.57;64.61
10460;BME280;54412;51.206;6.888;2022-07-22T08:58:45;101398.72;;;20.62;64.29
10460;BME280;54412;51.206;6.888;2022-07-22T09:01:15;101410.25;;;20.85;63.67
10460;BME280;54412;51.206;6.888;2022-07-22T09:03:52;101410.38;;;20.83;63.17
10460;BME280;54412;51.206;6.888;2022-07-22T09:06:20;101411.13;;;20.63;62.17
10460;BME280;54412;51.206;6.888;2022-07-22T09:11:19;101406.00;;;20.60;62.25
10460;BME280;54412;51.206;6.888;2022-07-22T09:13:46;101399.16;;;20.45;62.81
10460;BME280;54412;51.206;6.888;2022-07-22T09:16:13;101400.41;;;20.63;61.74
10460;BME280;54412;51.206;6.888;2022-07-22T09:18:54;101398.94;;;20.37;62.96
10460;BME280;54412;51.206;6.888;2022-07-22T09:21:23;101391.41;;;20.53;63.50
10460;BME280;54412;51.206;6.888;2022-07-22T09:23:49;101386.38;;;20.60;63.09
10460;BME280;54412;51.206;6.888;2022-07-22T09:26:32;101394.81;;;20.77;62.18
10460;BME280;54412;51.206;6.888;2022-07-22T09:28:58;101389.69;;;20.52;63.33
10460;BME280;54412;51.206;6.888;2022-07-22T09:31:32;101394.31;;;20.39;63.09
10460;BME280;54412;51.206;6.888;2022-07-22T09:33:59;101393.59;;;20.59;63.17
10460;BME280;54412;51.206;6.888;2022-07-22T09:36:25;101399.69;;;20.50;63.77
10460;BME280;54412;51.206;6.888;2022-07-22T09:38:52;101408.56;;;20.62;63.37
10460;BME280;54412;51.206;6.888;2022-07-22T09:41:18;101407.84;;;20.71;63.35
10460;BME280;54412;51.206;6.888;2022-07-22T09:43:45;101410.03;;;20.66;63.32
10460;BME280;54412;51.206;6.888;2022-07-22T09:46:11;101408.56;;;20.73;62.88
10460;BME280;54412;51.206;6.888;2022-07-22T09:48:38;101408.81;;;20.81;63.02
10460;BME280;54412;51.206;6.888;2022-07-22T09:51:05;101409.56;;;20.83;62.33
10460;BME280;54412;51.206;6.888;2022-07-22T09:53:33;101407.44;;;20.98;62.94
10460;BME280;54412;51.206;6.888;2022-07-22T09:56:02;101403.94;;;20.97;62.72
10460;BME280;54412;51.206;6.888;2022-07-22T09:58:29;101398.91;;;21.15;61.51
10460;BME280;54412;51.206;6.888;2022-07-22T10:01:02;101399.25;;;21.21;61.23
10460;BME280;54412;51.206;6.888;2022-07-22T10:03:35;101395.19;;;21.38;60.97
10460;BME280;54412;51.206;6.888;2022-07-22T10:06:04;101384.78;;;21.76;59.89
10460;BME280;54412;51.206;6.888;2022-07-22T10:08:32;101387.28;;;21.57;59.55
10460;BME280;54412;51.206;6.888;2022-07-22T10:11:05;101382.47;;;21.71;59.15
10460;BME280;54412;51.206;6.888;2022-07-22T10:13:32;101386.88;;;21.72;59.61
10460;BME280;54412;51.206;6.888;2022-07-22T10:16:00;101375.72;;;21.77;59.74
10460;BME280;54412;51.206;6.888;2022-07-22T10:18:26;101373.91;;;21.77;59.66
10460;BME280;54412;51.206;6.888;2022-07-22T10:21:07;101372.38;;;21.96;59.08
10460;BME280;54412;51.206;6.888;2022-07-22T10:23:33;101379.31;;;22.19;57.31
10460;BME280;54412;51.206;6.888;2022-07-22T10:26:02;101379.63;;;22.25;57.92
10460;BME280;54412;51.206;6.888;2022-07-22T10:28:34;101370.09;;;22.42;57.24
10460;BME280;54412;51.206;6.888;2022-07-22T10:33:44;101356.06;;;22.59;56.50
10460;BME280;54412;51.206;6.888;2022-07-22T10:36:10;101346.66;;;22.53;56.78
10460;BME280;54412;51.206;6.888;2022-07-22T10:38:36;101349.47;;;22.82;56.37
10460;BME280;54412;51.206;6.888;2022-07-22T10:41:05;101347.31;;;22.76;56.49
10460;BME280;54412;51.206;6.888;2022-07-22T10:46:08;101343.84;;;23.14;54.45
10460;BME280;54412;51.206;6.888;2022-07-22T10:51:20;101352.34;;;23.00;56.52
10460;BME280;54412;51.206;6.888;2022-07-22T10:54:01;101344.13;;;23.01;56.06
10460;BME280;54412;51.206;6.888;2022-07-22T10:56:31;101341.75;;;23.17;55.18
10460;BME280;54412;51.206;6.888;2022-07-22T10:59:12;101353.09;;;23.11;55.87
10460;BME280;54412;51.206;6.888;2022-07-22T11:01:41;101345.28;;;22.99;55.65
10460;BME280;54412;51.206;6.888;2022-07-22T11:04:23;101358.66;;;23.29;55.43
10460;BME280;54412;51.206;6.888;2022-07-22T11:06:55;101362.19;;;23.39;55.06
10460;BME280;54412;51.206;6.888;2022-07-22T11:09:30;101353.97;;;23.50;55.03
10460;BME280;54412;51.206;6.888;2022-07-22T11:11:57;101355.06;;;23.28;55.36
10460;BME280;54412;51.206;6.888;2022-07-22T11:14:29;101349.03;;;23.45;54.68
10460;BME280;54412;51.206;6.888;2022-07-22T11:17:08;101340.06;;;23.64;54.18
10460;BME280;54412;51.206;6.888;2022-07-22T11:19:36;101340.94;;;23.55;55.20
10460;BME280;54412;51.206;6.888;2022-07-22T11:22:10;101346.03;;;23.67;54.47
10460;BME280;54412;51.206;6.888;2022-07-22T11:24:37;101342.19;;;23.60;54.91
10460;BME280;54412;51.206;6.888;2022-07-22T11:27:06;101330.19;;;23.45;54.80
10460;BME280;54412;51.206;6.888;2022-07-22T11:29:37;101331.56;;;23.68;54.28
10460;BME280;54412;51.206;6.888;2022-07-22T11:32:11;101334.94;;;23.99;53.03
10460;BME280;54412;51.206;6.888;2022-07-22T11:34:42;101333.25;;;23.89;52.65
10460;BME280;54412;51.206;6.888;2022-07-22T11:37:11;101330.22;;;24.20;52.84
10460;BME280;54412;51.206;6.888;2022-07-22T11:39:37;101329.78;;;24.25;52.06
10460;BME280;54412;51.206;6.888;2022-07-22T11:42:04;101329.19;;;24.31;50.39
10460;BME280;54412;51.206;6.888;2022-07-22T11:44:33;101329.00;;;23.76;49.30
10460;BME280;54412;51.206;6.888;2022-07-22T11:47:00;101326.75;;;23.62;51.51
10460;BME280;54412;51.206;6.888;2022-07-22T11:49:29;101328.16;;;23.76;51.99
10460;BME280;54412;51.206;6.888;2022-07-22T11:51:55;101328.44;;;23.82;52.57
10460;BME280;54412;51.206;6.888;2022-07-22T11:54:21;101326.19;;;23.78;52.83
10460;BME280;54412;51.206;6.888;2022-07-22T11:56:48;101317.97;;;23.60;52.89
10460;BME280;54412;51.206;6.888;2022-07-22T11:59:17;101315.13;;;23.71;50.47
10460;BME280;54412;51.206;6.888;2022-07-22T12:01:46;101321.09;;;23.46;52.94
10460;BME280;54412;51.206;6.888;2022-07-22T12:04:24;101307.78;;;23.54;52.24
10460;BME280;54412;51.206;6.888;2022-07-22T12:06:52;101313.69;;;23.67;50.60
10460;BME280;54412;51.206;6.888;2022-07-22T12:09:30;101302.19;;;23.94;51.13
10460;BME280;54412;51.206;6.888;2022-07-22T12:11:57;101299.78;;;24.01;49.59
10460;BME280;54412;51.206;6.888;2022-07-22T12:14:30;101300.63;;;23.82;49.85
10460;BME280;54412;51.206;6.888;2022-07-22T12:17:01;101298.00;;;23.63;49.97
10460;BME280;54412;51.206;6.888;2022-07-22T12:19:31;101300.63;;;24.01;50.55
10460;BME280;54412;51.206;6.888;2022-07-22T12:22:02;101298.03;;;24.09;50.25
10460;BME280;54412;51.206;6.888;2022-07-22T12:24:36;101291.81;;;23.99;50.60
10460;BME280;54412;51.206;6.888;2022-07-22T12:27:14;101287.28;;;23.90;50.67
10460;BME280;54412;51.206;6.888;2022-07-22T12:32:10;101283.72;;;24.72;50.34
10460;BME280;54412;51.206;6.888;2022-07-22T12:34:44;101283.56;;;24.92;49.48
10460;BME280;54412;51.206;6.888;2022-07-22T12:37:27;101288.31;;;25.07;48.04
10460;BME280;54412;51.206;6.888;2022-07-22T12:42:45;101284.03;;;24.60;48.94
10460;BME280;54412;51.206;6.888;2022-07-22T12:45:15;101281.19;;;24.71;49.10
10460;BME280;54412;51.206;6.888;2022-07-22T12:50:43;101274.47;;;24.48;47.29
10460;BME280;54412;51.206;6.888;2022-07-22T12:53:15;101270.06;;;24.74;48.25
10460;BME280;54412;51.206;6.888;2022-07-22T12:58:14;101266.41;;;24.93;48.79
10460;BME280;54412;51.206;6.888;2022-07-22T13:00:44;101259.53;;;24.98;48.17
10460;BME280;54412;51.206;6.888;2022-07-22T13:03:10;101256.59;;;24.92;49.08
10460;BME280;54412;51.206;6.888;2022-07-22T13:05:36;101256.63;;;24.64;49.20
10460;BME280;54412;51.206;6.888;2022-07-22T13:08:03;101250.53;;;24.90;48.74
10460;BME280;54412;51.206;6.888;2022-07-22T13:10:29;101253.88;;;24.74;48.63
10460;BME280;54412;51.206;6.888;2022-07-22T13:12:55;101247.09;;;24.70;48.90